sensor_id;sensor_type;location;lat;lon;timestamp;pressure;altitude;pressure_sealevel;temperature;humidity
58739;BME280;44512;53.046;18.604;2022-10-16T00:03:42;101522.23;;;16.23;67.60
58739;BME280;44512;53.046;18.604;2022-10-16T00:14:12;101529.13;;;16.26;67.53
58739;BME280;44512;53.046;18.604;2022-10-16T00:24:38;101546.99;;;16.28;67.38
58739;BME280;44512;53.046;18.604;2022-10-16T00:35:06;101547.82;;;16.29;67.27
58739;BME280;44512;53.046;18.604;2022-10-16T00:45:37;101556.21;;;16.27;67.06
58739;BME280;44512;53.046;18.604;2022-10-16T00:56:03;101565.93;;;16.23;66.93
58739;BME280;44512;53.046;18.604;2022-10-16T01:17:05;101550.41;;;16.10;66.77
58739;BME280;44512;53.046;18.604;2022-10-16T01:27:30;101567.67;;;16.04;66.81
58739;BME280;44512;53.046;18.604;2022-10-16T01:38:04;101563.09;;;15.98;66.90
58739;BME280;44512;53.046;18.604;2022-10-16T01:48:25;101563.73;;;15.94;67.11
58739;BME280;44512;53.046;18.604;2022-10-16T01:59:00;101576.97;;;15.90;67.29
58739;BME280;44512;53.046;18.604;2022-10-16T02:09:22;101572.78;;;15.87;67.41
58739;BME280;44512;53.046;18.604;2022-10-16T02:19:53;101560.38;;;15.85;67.43
58739;BME280;44512;53.046;18.604;2022-10-16T02:40:47;101564.40;;;15.76;67.53
58739;BME280;44512;53.046;18.604;2022-10-16T02:51:16;101562.73;;;15.75;67.46
58739;BME280;44512;53.046;18.604;2022-10-16T03:01:44;101563.17;;;15.72;67.47
58739;BME280;44512;53.046;18.604;2022-10-16T03:12:13;101549.33;;;15.67;67.54
58739;BME280;44512;53.046;18.604;2022-10-16T03:22:41;101556.04;;;15.64;67.72
58739;BME280;44512;53.046;18.604;2022-10-16T03:33:09;101563.58;;;15.62;67.91
58739;BME280;44512;53.046;18.604;2022-10-16T03:43:38;101579.76;;;15.63;67.99
58739;BME280;44512;53.046;18.604;2022-10-16T03:54:06;101594.24;;;15.64;68.06
58739;BME280;44512;53.046;18.604;2022-10-16T04:04:35;101589.63;;;15.65;68.10
58739;BME280;44512;53.046;18.604;2022-10-16T04:15:03;101601.38;;;15.65;68.19
58739;BME280;44512;53.046;18.604;2022-10-16T04:25:31;101609.37;;;15.67;68.27
58739;BME280;44512;53.046;18.604;2022-10-16T04:36:01;101599.29;;;15.67;68.29
58739;BME280;44512;53.046;18.604;2022-10-16T04:46:28;101607.66;;;15.66;68.36
58739;BME280;44512;53.046;18.604;2022-10-16T04:56:56;101612.09;;;15.67;68.39
58739;BME280;44512;53.046;18.604;2022-10-16T05:07:25;101626.58;;;15.67;68.45
58739;BME280;44512;53.046;18.604;2022-10-16T05:17:54;101637.07;;;15.63;68.57
58739;BME280;44512;53.046;18.604;2022-10-16T05:28:21;101647.34;;;15.61;68.69
58739;BME280;44512;53.046;18.604;2022-10-16T05:38:50;101654.88;;;15.59;68.90
58739;BME280;44512;53.046;18.604;2022-10-16T05:49:18;101667.27;;;15.62;69.06
58739;BME280;44512;53.046;18.604;2022-10-16T05:59:47;101682.63;;;15.63;69.20
58739;BME280;44512;53.046;18.604;2022-10-16T06:10:15;101691.24;;;15.67;69.42
58739;BME280;44512;53.046;18.604;2022-10-16T06:20:43;101679.89;;;15.70;69.72
58739;BME280;44512;53.046;18.604;2022-10-16T06:31:13;101686.61;;;15.74;69.96
58739;BME280;44512;53.046;18.604;2022-10-16T06:41:40;101695.01;;;15.79;70.14
58739;BME280;44512;53.046;18.604;2022-10-16T06:52:09;101710.98;;;15.82;70.20
58739;BME280;44512;53.046;18.604;2022-10-16T07:02:37;101721.89;;;15.82;70.42
58739;BME280;44512;53.046;18.604;2022-10-16T07:13:05;101725.23;;;15.84;70.67
58739;BME280;44512;53.046;18.604;2022-10-16T07:23:34;101728.18;;;15.89;70.88
58739;BME280;44512;53.046;18.604;2022-10-16T07:34:02;101729.00;;;15.96;71.04
58739;BME280;44512;53.046;18.604;2022-10-16T07:44:30;101731.08;;;16.07;71.17
58739;BME280;44512;53.046;18.604;2022-10-16T07:54:59;101752.72;;;16.15;71.37
58739;BME280;44512;53.046;18.604;2022-10-16T08:05:29;101756.27;;;16.23;71.72
58739;BME280;44512;53.046;18.604;2022-10-16T08:16:00;101768.04;;;16.30;72.09
58739;BME280;44512;53.046;18.604;2022-10-16T08:26:33;101780.62;;;16.37;72.10
58739;BME280;44512;53.046;18.604;2022-10-16T08:36:55;101774.72;;;16.47;72.78
58739;BME280;44512;53.046;18.604;2022-10-16T08:47:26;101782.26;;;16.58;72.95
58739;BME280;44512;53.046;18.604;2022-10-16T08:57:49;101790.45;;;16.72;73.03
58739;BME280;44512;53.046;18.604;2022-10-16T09:08:32;101777.77;;;16.84;72.99
58739;BME280;44512;53.046;18.604;2022-10-16T09:18:57;101785.50;;;17.00;72.72
58739;BME280;44512;53.046;18.604;2022-10-16T09:29:16;101781.27;;;17.11;72.25
58739;BME280;44512;53.046;18.604;2022-10-16T09:39:49;101783.91;;;17.24;71.96
58739;BME280;44512;53.046;18.604;2022-10-16T10:00:41;101808.34;;;17.57;71.16
58739;BME280;44512;53.046;18.604;2022-10-16T10:11:08;101805.73;;;17.76;70.53
58739;BME280;44512;53.046;18.604;2022-10-16T10:21:38;101794.69;;;17.89;70.24
58739;BME280;44512;53.046;18.604;2022-10-16T10:32:12;101794.55;;;18.02;69.73
58739;BME280;44512;53.046;18.604;2022-10-16T11:24:36;101828.09;;;18.47;67.15
58739;BME280;44512;53.046;18.604;2022-10-16T11:35:00;101834.16;;;18.49;66.89
58739;BME280;44512;53.046;18.604;2022-10-16T11:45:31;101845.52;;;18.53;67.55
58739;BME280;44512;53.046;18.604;2022-10-16T11:55:51;101837.91;;;18.55;67.44
58739;BME280;44512;53.046;18.604;2022-10-16T12:16:57;101847.98;;;18.61;67.78
58739;BME280;44512;53.046;18.604;2022-10-16T12:27:27;101827.68;;;18.69;67.79
58739;BME280;44512;53.046;18.604;2022-10-16T12:37:45;101845.74;;;18.77;67.77
58739;BME280;44512;53.046;18.604;2022-10-16T12:48:19;101851.39;;;18.82;67.70
58739;BME280;44512;53.046;18.604;2022-10-16T13:09:20;101862.05;;;18.90;67.65
58739;BME280;44512;53.046;18.604;2022-10-16T13:20:03;101855.88;;;18.94;67.59
58739;BME280;44512;53.046;18.604;2022-10-16T13:30:13;101851.23;;;18.95;67.26
58739;BME280;44512;53.046;18.604;2022-10-16T13:40:36;101879.30;;;18.97;67.36
58739;BME280;44512;53.046;18.604;2022-10-16T13:51:25;101895.88;;;19.02;67.56
58739;BME280;44512;53.046;18.604;2022-10-16T14:01:40;101905.34;;;19.06;67.50
58739;BME280;44512;53.046;18.604;2022-10-16T14:12:09;101901.08;;;19.10;67.43
58739;BME280;44512;53.046;18.604;2022-10-16T14:22:34;101913.71;;;19.11;67.36
58739;BME280;44512;53.046;18.604;2022-10-16T14:33:02;101923.42;;;19.14;67.38
58739;BME280;44512;53.046;18.604;2022-10-16T14:53:53;101931.33;;;19.22;67.26
58739;BME280;44512;53.046;18.604;2022-10-16T15:04:24;101932.95;;;19.30;67.23
58739;BME280;44512;53.046;18.604;2022-10-16T15:14:50;101953.99;;;19.36;66.84
58739;BME280;44512;53.046;18.604;2022-10-16T15:35:47;101963.21;;;19.41;66.24
58739;BME280;44512;53.046;18.604;2022-10-16T15:46:18;101971.92;;;19.38;66.66
58739;BME280;44512;53.046;18.604;2022-10-16T15:56:43;101977.62;;;19.37;65.81
58739;BME280;44512;53.046;18.604;2022-10-16T16:07:11;101986.17;;;19.29;65.60
58739;BME280;44512;53.046;18.604;2022-10-16T16:17:40;101991.35;;;19.18;65.64
58739;BME280;44512;53.046;18.604;2022-10-16T16:28:08;102005.59;;;19.09;65.83
58739;BME280;44512;53.046;18.604;2022-10-16T16:38:37;102028.65;;;19.01;65.98
58739;BME280;44512;53.046;18.604;2022-10-16T16:54:17;102046.91;;;18.89;66.31
58739;BME280;44512;53.046;18.604;2022-10-16T17:04:45;102059.63;;;18.83;66.49
58739;BME280;44512;53.046;18.604;2022-10-16T17:15:13;102063.46;;;18.76;66.50
58739;BME280;44512;53.046;18.604;2022-10-16T17:25:42;102081.88;;;18.68;66.52
58739;BME280;44512;53.046;18.604;2022-10-16T17:36:11;102099.43;;;18.61;66.54
58739;BME280;44512;53.046;18.604;2022-10-16T17:46:38;102109.34;;;18.55;66.47
58739;BME280;44512;53.046;18.604;2022-10-16T17:57:07;102142.52;;;18.47;66.33
58739;BME280;44512;53.046;18.604;2022-10-16T18:07:35;102156.46;;;18.39;66.24
58739;BME280;44512;53.046;18.604;2022-10-16T18:18:03;102157.98;;;18.28;66.11
58739;BME280;44512;53.046;18.604;2022-10-16T18:28:32;102170.47;;;18.17;66.26
58739;BME280;44512;53.046;18.604;2022-10-16T18:39:04;102184.80;;;18.13;66.23
58739;BME280;44512;53.046;18.604;2022-10-16T18:49:28;102194.95;;;18.06;65.63
58739;BME280;44512;53.046;18.604;2022-10-16T18:59:57;102223.65;;;17.90;64.78
58739;BME280;44512;53.046;18.604;2022-10-16T19:10:25;102227.44;;;17.76;64.76
58739;BME280;44512;53.046;18.604;2022-10-16T19:20:54;102247.63;;;17.61;64.67
58739;BME280;44512;53.046;18.604;2022-10-16T19:31:24;102261.95;;;17.50;64.58
58739;BME280;44512;53.046;18.604;2022-10-16T19:41:50;102274.98;;;17.35;63.58
58739;BME280;44512;53.046;18.604;2022-10-16T19:52:19;102294.08;;;17.15;63.00
58739;BME280;44512;53.046;18.604;2022-10-16T20:02:47;102300.13;;;16.97;63.12
58739;BME280;44512;53.046;18.604;2022-10-16T20:13:16;102296.71;;;16.82;62.97
58739;BME280;44512;53.046;18.604;2022-10-16T20:23:44;102309.25;;;16.70;63.08
58739;BME280;44512;53.046;18.604;2022-10-16T20:34:15;102314.63;;;16.56;63.22
58739;BME280;44512;53.046;18.604;2022-10-16T20:44:41;102344.84;;;16.48;63.63
58739;BME280;44512;53.046;18.604;2022-10-16T20:55:09;102343.96;;;16.41;63.73
58739;BME280;44512;53.046;18.604;2022-10-16T21:05:41;102348.30;;;16.29;63.56
58739;BME280;44512;53.046;18.604;2022-10-16T21:16:06;102377.19;;;16.17;63.21
58739;BME280;44512;53.046;18.604;2022-10-16T21:26:34;102389.07;;;16.02;62.84
58739;BME280;44512;53.046;18.604;2022-10-16T21:37:02;102393.55;;;15.88;62.50
58739;BME280;44512;53.046;18.604;2022-10-16T21:47:31;102401.59;;;15.75;62.36
58739;BME280;44512;53.046;18.604;2022-10-16T21:57:59;102421.38;;;15.62;62.47
58739;BME280;44512;53.046;18.604;2022-10-16T22:08:28;102427.71;;;15.48;62.44
58739;BME280;44512;53.046;18.604;2022-10-16T22:18:56;102451.72;;;15.38;62.24
58739;BME280;44512;53.046;18.604;2022-10-16T22:29:24;102456.63;;;15.28;62.20
58739;BME280;44512;53.046;18.604;2022-10-16T22:39:53;102448.92;;;15.17;62.21
58739;BME280;44512;53.046;18.604;2022-10-16T22:50:21;102460.11;;;15.07;62.05
58739;BME280;44512;53.046;18.604;2022-10-16T23:00:50;102464.16;;;14.96;61.76
58739;BME280;44512;53.046;18.604;2022-10-16T23:11:19;102483.70;;;14.85;62.08
58739;BME280;44512;53.046;18.604;2022-10-16T23:21:46;102493.19;;;14.74;62.03
58739;BME280;44512;53.046;18.604;2022-10-16T23:32:15;102480.01;;;14.63;62.11
58739;BME280;44512;53.046;18.604;2022-10-16T23:42:43;102485.72;;;14.53;62.18
58739;BME280;44512;53.046;18.604;2022-10-16T23:53:11;102503.12;;;14.44;62.09
